sensor_id;sensor_type;location;lat;lon;timestamp;P1;durP1;ratioP1;P2;durP2;ratioP2
13989;SDS011;7069;52.528;13.316;2023-04-07T00:00:37;8.87;;;7.27;;
13989;SDS011;7069;52.528;13.316;2023-04-07T00:03:04;10.80;;;7.87;;
13989;SDS011;7069;52.528;13.316;2023-04-07T00:05:31;9.43;;;7.10;;
13989;SDS011;7069;52.528;13.316;2023-04-07T00:07:58;9.57;;;7.10;;
13989;SDS011;7069;52.528;13.316;2023-04-07T00:10:25;10.47;;;8.67;;
13989;SDS011;7069;52.528;13.316;2023-04-07T00:12:51;10.40;;;8.27;;
13989;SDS011;7069;52.528;13.316;2023-04-07T00:15:18;12.53;;;8.43;;
13989;SDS011;7069;52.528;13.316;2023-04-07T00:17:46;11.47;;;8.63;;
13989;SDS011;7069;52.528;13.316;2023-04-07T00:20:13;12.37;;;8.60;;
13989;SDS011;7069;52.528;13.316;2023-04-07T00:22:39;10.07;;;8.80;;
13989;SDS011;7069;52.528;13.316;2023-04-07T00:25:06;12.17;;;8.30;;
13989;SDS011;7069;52.528;13.316;2023-04-07T00:27:33;12.13;;;8.43;;
13989;SDS011;7069;52.528;13.316;2023-04-07T00:30:00;10.93;;;8.70;;
13989;SDS011;7069;52.528;13.316;2023-04-07T00:32:26;11.30;;;8.90;;
13989;SDS011;7069;52.528;13.316;2023-04-07T00:34:54;14.97;;;9.83;;
13989;SDS011;7069;52.528;13.316;2023-04-07T00:37:21;12.53;;;9.73;;
13989;SDS011;7069;52.528;13.316;2023-04-07T00:39:48;11.73;;;9.33;;
13989;SDS011;7069;52.528;13.316;2023-04-07T00:42:15;10.90;;;9.33;;
13989;SDS011;7069;52.528;13.316;2023-04-07T00:44:42;10.47;;;8.20;;
13989;SDS011;7069;52.528;13.316;2023-04-07T00:47:08;14.70;;;9.60;;
13989;SDS011;7069;52.528;13.316;2023-04-07T00:49:35;10.60;;;7.87;;
13989;SDS011;7069;52.528;13.316;2023-04-07T00:52:03;13.53;;;8.53;;
13989;SDS011;7069;52.528;13.316;2023-04-07T00:54:31;11.37;;;8.07;;
13989;SDS011;7069;52.528;13.316;2023-04-07T00:56:57;8.13;;;7.33;;
13989;SDS011;7069;52.528;13.316;2023-04-07T00:59:25;12.53;;;8.80;;
13989;SDS011;7069;52.528;13.316;2023-04-07T01:01:54;8.27;;;7.40;;
13989;SDS011;7069;52.528;13.316;2023-04-07T01:04:25;8.17;;;7.20;;
13989;SDS011;7069;52.528;13.316;2023-04-07T01:06:54;7.27;;;6.57;;
13989;SDS011;7069;52.528;13.316;2023-04-07T01:09:24;7.50;;;6.77;;
13989;SDS011;7069;52.528;13.316;2023-04-07T01:11:54;7.93;;;6.23;;
13989;SDS011;7069;52.528;13.316;2023-04-07T01:14:23;7.70;;;6.27;;
13989;SDS011;7069;52.528;13.316;2023-04-07T01:16:51;10.07;;;6.90;;
13989;SDS011;7069;52.528;13.316;2023-04-07T01:19:29;8.10;;;6.53;;
13989;SDS011;7069;52.528;13.316;2023-04-07T01:21:58;9.93;;;6.27;;
13989;SDS011;7069;52.528;13.316;2023-04-07T01:24:31;11.20;;;6.83;;
13989;SDS011;7069;52.528;13.316;2023-04-07T01:27:04;9.37;;;7.03;;
13989;SDS011;7069;52.528;13.316;2023-04-07T01:29:34;10.10;;;6.47;;
13989;SDS011;7069;52.528;13.316;2023-04-07T01:32:04;8.93;;;6.97;;
13989;SDS011;7069;52.528;13.316;2023-04-07T01:34:32;8.53;;;7.63;;
13989;SDS011;7069;52.528;13.316;2023-04-07T01:37:00;9.70;;;7.30;;
13989;SDS011;7069;52.528;13.316;2023-04-07T01:39:27;9.30;;;8.20;;
13989;SDS011;7069;52.528;13.316;2023-04-07T01:41:54;7.10;;;6.40;;
13989;SDS011;7069;52.528;13.316;2023-04-07T01:44:22;9.73;;;7.13;;
13989;SDS011;7069;52.528;13.316;2023-04-07T01:46:51;9.73;;;7.53;;
13989;SDS011;7069;52.528;13.316;2023-04-07T01:49:19;7.83;;;7.13;;
13989;SDS011;7069;52.528;13.316;2023-04-07T01:51:46;9.43;;;7.63;;
13989;SDS011;7069;52.528;13.316;2023-04-07T01:54:14;10.57;;;8.20;;
13989;SDS011;7069;52.528;13.316;2023-04-07T01:56:41;9.77;;;8.07;;
13989;SDS011;7069;52.528;13.316;2023-04-07T01:59:08;9.90;;;8.40;;
13989;SDS011;7069;52.528;13.316;2023-04-07T02:01:35;10.80;;;8.60;;
13989;SDS011;7069;52.528;13.316;2023-04-07T02:04:05;10.60;;;8.17;;
13989;SDS011;7069;52.528;13.316;2023-04-07T02:06:36;16.40;;;9.23;;
13989;SDS011;7069;52.528;13.316;2023-04-07T02:09:05;11.23;;;9.07;;
13989;SDS011;7069;52.528;13.316;2023-04-07T02:11:32;11.93;;;9.10;;
13989;SDS011;7069;52.528;13.316;2023-04-07T02:14:00;13.73;;;10.73;;
13989;SDS011;7069;52.528;13.316;2023-04-07T02:16:27;12.63;;;10.17;;
13989;SDS011;7069;52.528;13.316;2023-04-07T02:18:55;17.43;;;11.57;;
13989;SDS011;7069;52.528;13.316;2023-04-07T02:21:24;13.33;;;11.10;;
13989;SDS011;7069;52.528;13.316;2023-04-07T02:23:51;14.13;;;11.47;;
13989;SDS011;7069;52.528;13.316;2023-04-07T02:26:18;15.37;;;11.07;;
13989;SDS011;7069;52.528;13.316;2023-04-07T02:28:44;17.40;;;11.37;;
13989;SDS011;7069;52.528;13.316;2023-04-07T02:31:11;14.00;;;10.37;;
13989;SDS011;7069;52.528;13.316;2023-04-07T02:33:38;10.67;;;9.57;;
13989;SDS011;7069;52.528;13.316;2023-04-07T02:36:05;13.07;;;10.77;;
13989;SDS011;7069;52.528;13.316;2023-04-07T02:38:33;14.03;;;9.73;;
13989;SDS011;7069;52.528;13.316;2023-04-07T02:41:00;15.70;;;12.33;;
13989;SDS011;7069;52.528;13.316;2023-04-07T02:43:26;13.33;;;11.13;;
13989;SDS011;7069;52.528;13.316;2023-04-07T02:45:53;17.60;;;12.97;;
13989;SDS011;7069;52.528;13.316;2023-04-07T02:48:20;17.87;;;12.47;;
13989;SDS011;7069;52.528;13.316;2023-04-07T02:50:47;14.93;;;11.50;;
13989;SDS011;7069;52.528;13.316;2023-04-07T02:53:13;14.17;;;11.53;;
13989;SDS011;7069;52.528;13.316;2023-04-07T02:55:41;13.40;;;10.33;;
13989;SDS011;7069;52.528;13.316;2023-04-07T02:58:08;12.37;;;10.37;;
13989;SDS011;7069;52.528;13.316;2023-04-07T03:00:35;12.00;;;9.70;;
13989;SDS011;7069;52.528;13.316;2023-04-07T03:03:04;13.67;;;10.33;;
13989;SDS011;7069;52.528;13.316;2023-04-07T03:05:31;10.03;;;9.07;;
13989;SDS011;7069;52.528;13.316;2023-04-07T03:07:57;9.50;;;8.53;;
13989;SDS011;7069;52.528;13.316;2023-04-07T03:10:24;12.53;;;10.80;;
13989;SDS011;7069;52.528;13.316;2023-04-07T03:12:52;11.60;;;10.27;;
13989;SDS011;7069;52.528;13.316;2023-04-07T03:15:19;13.07;;;10.17;;
13989;SDS011;7069;52.528;13.316;2023-04-07T03:17:46;15.17;;;10.43;;
13989;SDS011;7069;52.528;13.316;2023-04-07T03:20:12;12.40;;;9.23;;
13989;SDS011;7069;52.528;13.316;2023-04-07T03:22:39;12.20;;;9.83;;
13989;SDS011;7069;52.528;13.316;2023-04-07T03:25:06;13.17;;;9.97;;
13989;SDS011;7069;52.528;13.316;2023-04-07T03:27:33;14.43;;;9.63;;
13989;SDS011;7069;52.528;13.316;2023-04-07T03:30:01;11.57;;;9.27;;
13989;SDS011;7069;52.528;13.316;2023-04-07T03:32:27;10.60;;;9.03;;
13989;SDS011;7069;52.528;13.316;2023-04-07T03:34:54;10.67;;;9.20;;
13989;SDS011;7069;52.528;13.316;2023-04-07T03:37:21;10.50;;;9.03;;
13989;SDS011;7069;52.528;13.316;2023-04-07T03:39:48;13.00;;;8.93;;
13989;SDS011;7069;52.528;13.316;2023-04-07T03:42:14;12.50;;;10.13;;
13989;SDS011;7069;52.528;13.316;2023-04-07T03:44:41;13.43;;;10.00;;
13989;SDS011;7069;52.528;13.316;2023-04-07T03:47:09;12.07;;;10.00;;
13989;SDS011;7069;52.528;13.316;2023-04-07T03:49:35;13.37;;;10.10;;
13989;SDS011;7069;52.528;13.316;2023-04-07T03:52:02;13.40;;;9.57;;
13989;SDS011;7069;52.528;13.316;2023-04-07T03:54:29;12.63;;;8.87;;
13989;SDS011;7069;52.528;13.316;2023-04-07T03:56:55;12.00;;;9.50;;
13989;SDS011;7069;52.528;13.316;2023-04-07T03:59:22;10.63;;;9.53;;
13989;SDS011;7069;52.528;13.316;2023-04-07T04:01:48;9.60;;;8.60;;
13989;SDS011;7069;52.528;13.316;2023-04-07T04:04:16;10.53;;;9.43;;
13989;SDS011;7069;52.528;13.316;2023-04-07T04:06:43;10.03;;;9.03;;
13989;SDS011;7069;52.528;13.316;2023-04-07T04:09:09;10.13;;;8.37;;
13989;SDS011;7069;52.528;13.316;2023-04-07T04:11:36;11.60;;;9.70;;
13989;SDS011;7069;52.528;13.316;2023-04-07T04:14:02;14.47;;;9.30;;
13989;SDS011;7069;52.528;13.316;2023-04-07T04:16:29;10.23;;;8.60;;
13989;SDS011;7069;52.528;13.316;2023-04-07T04:18:56;10.17;;;8.30;;
13989;SDS011;7069;52.528;13.316;2023-04-07T04:21:24;8.20;;;7.27;;
13989;SDS011;7069;52.528;13.316;2023-04-07T04:23:51;9.03;;;7.67;;
13989;SDS011;7069;52.528;13.316;2023-04-07T04:26:18;10.40;;;8.00;;
13989;SDS011;7069;52.528;13.316;2023-04-07T04:28:45;12.03;;;9.37;;
13989;SDS011;7069;52.528;13.316;2023-04-07T04:31:11;10.30;;;9.10;;
13989;SDS011;7069;52.528;13.316;2023-04-07T04:33:38;10.07;;;8.27;;
13989;SDS011;7069;52.528;13.316;2023-04-07T04:36:05;8.57;;;7.73;;
13989;SDS011;7069;52.528;13.316;2023-04-07T04:38:33;10.23;;;8.50;;
13989;SDS011;7069;52.528;13.316;2023-04-07T04:41:01;11.37;;;8.40;;
13989;SDS011;7069;52.528;13.316;2023-04-07T04:43:27;9.03;;;7.17;;
13989;SDS011;7069;52.528;13.316;2023-04-07T04:45:54;8.77;;;6.80;;
13989;SDS011;7069;52.528;13.316;2023-04-07T04:48:23;8.40;;;7.30;;
13989;SDS011;7069;52.528;13.316;2023-04-07T04:50:50;9.07;;;7.57;;
13989;SDS011;7069;52.528;13.316;2023-04-07T04:53:16;8.50;;;7.57;;
13989;SDS011;7069;52.528;13.316;2023-04-07T04:55:44;9.50;;;7.47;;
13989;SDS011;7069;52.528;13.316;2023-04-07T04:58:17;9.73;;;7.17;;
13989;SDS011;7069;52.528;13.316;2023-04-07T05:00:44;9.30;;;7.87;;
13989;SDS011;7069;52.528;13.316;2023-04-07T05:03:10;8.13;;;7.33;;
13989;SDS011;7069;52.528;13.316;2023-04-07T05:05:40;8.60;;;7.63;;
13989;SDS011;7069;52.528;13.316;2023-04-07T05:08:07;10.87;;;7.40;;
13989;SDS011;7069;52.528;13.316;2023-04-07T05:10:36;8.43;;;7.47;;
13989;SDS011;7069;52.528;13.316;2023-04-07T05:13:05;9.00;;;6.77;;
13989;SDS011;7069;52.528;13.316;2023-04-07T05:15:31;8.80;;;6.70;;
13989;SDS011;7069;52.528;13.316;2023-04-07T05:17:58;9.27;;;7.43;;
13989;SDS011;7069;52.528;13.316;2023-04-07T05:20:24;8.53;;;7.47;;
13989;SDS011;7069;52.528;13.316;2023-04-07T05:22:51;8.53;;;7.30;;
13989;SDS011;7069;52.528;13.316;2023-04-07T05:25:17;9.97;;;7.53;;
13989;SDS011;7069;52.528;13.316;2023-04-07T05:27:44;8.63;;;7.60;;
13989;SDS011;7069;52.528;13.316;2023-04-07T05:30:13;8.77;;;7.87;;
13989;SDS011;7069;52.528;13.316;2023-04-07T05:32:40;10.60;;;7.70;;
13989;SDS011;7069;52.528;13.316;2023-04-07T05:35:07;7.77;;;6.97;;
13989;SDS011;7069;52.528;13.316;2023-04-07T05:37:33;7.73;;;6.67;;
13989;SDS011;7069;52.528;13.316;2023-04-07T05:40:00;7.40;;;6.50;;
13989;SDS011;7069;52.528;13.316;2023-04-07T05:42:27;9.37;;;7.63;;
13989;SDS011;7069;52.528;13.316;2023-04-07T05:44:54;8.10;;;7.07;;
13989;SDS011;7069;52.528;13.316;2023-04-07T05:47:22;9.27;;;7.27;;
13989;SDS011;7069;52.528;13.316;2023-04-07T05:49:49;9.43;;;7.67;;
13989;SDS011;7069;52.528;13.316;2023-04-07T05:52:16;8.63;;;7.73;;
13989;SDS011;7069;52.528;13.316;2023-04-07T05:54:42;10.03;;;8.57;;
13989;SDS011;7069;52.528;13.316;2023-04-07T05:57:09;8.43;;;7.50;;
13989;SDS011;7069;52.528;13.316;2023-04-07T05:59:35;9.00;;;7.53;;
13989;SDS011;7069;52.528;13.316;2023-04-07T06:02:02;10.00;;;8.53;;
13989;SDS011;7069;52.528;13.316;2023-04-07T06:04:30;10.80;;;7.67;;
13989;SDS011;7069;52.528;13.316;2023-04-07T06:06:59;13.43;;;10.10;;
13989;SDS011;7069;52.528;13.316;2023-04-07T06:09:26;9.67;;;8.27;;
13989;SDS011;7069;52.528;13.316;2023-04-07T06:11:53;10.53;;;7.47;;
13989;SDS011;7069;52.528;13.316;2023-04-07T06:14:20;12.10;;;8.23;;
13989;SDS011;7069;52.528;13.316;2023-04-07T06:16:47;9.20;;;7.33;;
13989;SDS011;7069;52.528;13.316;2023-04-07T06:19:14;9.33;;;8.43;;
13989;SDS011;7069;52.528;13.316;2023-04-07T06:21:42;10.57;;;7.47;;
13989;SDS011;7069;52.528;13.316;2023-04-07T06:24:08;9.23;;;7.53;;
13989;SDS011;7069;52.528;13.316;2023-04-07T06:26:35;10.10;;;8.80;;
13989;SDS011;7069;52.528;13.316;2023-04-07T06:29:02;13.40;;;8.90;;
13989;SDS011;7069;52.528;13.316;2023-04-07T06:31:28;12.40;;;8.50;;
13989;SDS011;7069;52.528;13.316;2023-04-07T06:33:55;9.87;;;7.80;;
13989;SDS011;7069;52.528;13.316;2023-04-07T06:36:22;10.20;;;8.17;;
13989;SDS011;7069;52.528;13.316;2023-04-07T06:38:51;9.93;;;8.10;;
13989;SDS011;7069;52.528;13.316;2023-04-07T06:41:18;11.07;;;8.20;;
13989;SDS011;7069;52.528;13.316;2023-04-07T06:43:45;15.07;;;9.00;;
13989;SDS011;7069;52.528;13.316;2023-04-07T06:46:12;11.30;;;8.73;;
13989;SDS011;7069;52.528;13.316;2023-04-07T06:48:39;10.50;;;7.87;;
13989;SDS011;7069;52.528;13.316;2023-04-07T06:51:06;9.83;;;8.37;;
13989;SDS011;7069;52.528;13.316;2023-04-07T06:53:32;10.60;;;8.97;;
13989;SDS011;7069;52.528;13.316;2023-04-07T06:56:04;11.80;;;8.60;;
13989;SDS011;7069;52.528;13.316;2023-04-07T06:58:31;9.33;;;8.40;;
13989;SDS011;7069;52.528;13.316;2023-04-07T07:00:59;10.50;;;8.40;;
13989;SDS011;7069;52.528;13.316;2023-04-07T07:03:25;8.33;;;7.43;;
13989;SDS011;7069;52.528;13.316;2023-04-07T07:05:53;11.03;;;8.07;;
13989;SDS011;7069;52.528;13.316;2023-04-07T07:08:20;9.40;;;8.40;;
13989;SDS011;7069;52.528;13.316;2023-04-07T07:10:47;8.90;;;7.53;;
13989;SDS011;7069;52.528;13.316;2023-04-07T07:13:15;10.23;;;8.50;;
13989;SDS011;7069;52.528;13.316;2023-04-07T07:15:42;12.33;;;9.07;;
13989;SDS011;7069;52.528;13.316;2023-04-07T07:18:09;9.43;;;7.93;;
13989;SDS011;7069;52.528;13.316;2023-04-07T07:20:35;9.50;;;8.40;;
13989;SDS011;7069;52.528;13.316;2023-04-07T07:23:02;11.00;;;7.90;;
13989;SDS011;7069;52.528;13.316;2023-04-07T07:25:29;8.80;;;7.90;;
13989;SDS011;7069;52.528;13.316;2023-04-07T07:27:56;8.53;;;7.70;;
13989;SDS011;7069;52.528;13.316;2023-04-07T07:30:24;12.37;;;8.03;;
13989;SDS011;7069;52.528;13.316;2023-04-07T07:32:50;8.50;;;7.60;;
13989;SDS011;7069;52.528;13.316;2023-04-07T07:35:18;9.13;;;8.00;;
13989;SDS011;7069;52.528;13.316;2023-04-07T07:37:45;10.23;;;8.20;;
13989;SDS011;7069;52.528;13.316;2023-04-07T07:40:12;9.50;;;7.40;;
13989;SDS011;7069;52.528;13.316;2023-04-07T07:42:39;8.03;;;6.93;;
13989;SDS011;7069;52.528;13.316;2023-04-07T07:45:06;9.03;;;7.07;;
13989;SDS011;7069;52.528;13.316;2023-04-07T07:47:35;13.53;;;8.03;;
13989;SDS011;7069;52.528;13.316;2023-04-07T07:50:02;12.07;;;7.03;;
13989;SDS011;7069;52.528;13.316;2023-04-07T07:52:28;8.87;;;6.93;;
13989;SDS011;7069;52.528;13.316;2023-04-07T07:54:55;7.47;;;6.23;;
13989;SDS011;7069;52.528;13.316;2023-04-07T07:57:22;9.23;;;7.70;;
13989;SDS011;7069;52.528;13.316;2023-04-07T07:59:48;9.03;;;7.53;;
13989;SDS011;7069;52.528;13.316;2023-04-07T08:02:15;8.83;;;6.43;;
13989;SDS011;7069;52.528;13.316;2023-04-07T08:04:43;8.20;;;6.10;;
13989;SDS011;7069;52.528;13.316;2023-04-07T08:07:10;9.23;;;6.47;;
13989;SDS011;7069;52.528;13.316;2023-04-07T08:09:36;8.20;;;6.70;;
13989;SDS011;7069;52.528;13.316;2023-04-07T08:12:04;9.37;;;6.27;;
13989;SDS011;7069;52.528;13.316;2023-04-07T08:14:30;8.17;;;6.17;;
13989;SDS011;7069;52.528;13.316;2023-04-07T08:16:57;5.73;;;4.97;;
13989;SDS011;7069;52.528;13.316;2023-04-07T08:19:23;6.40;;;4.80;;
13989;SDS011;7069;52.528;13.316;2023-04-07T08:21:52;5.10;;;4.53;;
13989;SDS011;7069;52.528;13.316;2023-04-07T08:24:19;6.20;;;4.90;;
13989;SDS011;7069;52.528;13.316;2023-04-07T08:26:45;5.47;;;4.10;;
13989;SDS011;7069;52.528;13.316;2023-04-07T08:29:12;5.60;;;4.33;;
13989;SDS011;7069;52.528;13.316;2023-04-07T08:31:39;6.63;;;4.13;;
13989;SDS011;7069;52.528;13.316;2023-04-07T08:34:05;6.20;;;4.13;;
13989;SDS011;7069;52.528;13.316;2023-04-07T08:36:32;5.93;;;4.47;;
13989;SDS011;7069;52.528;13.316;2023-04-07T08:39:00;5.20;;;3.70;;
13989;SDS011;7069;52.528;13.316;2023-04-07T08:41:31;5.43;;;4.23;;
13989;SDS011;7069;52.528;13.316;2023-04-07T08:43:58;7.07;;;4.33;;
13989;SDS011;7069;52.528;13.316;2023-04-07T08:46:26;6.53;;;4.80;;
13989;SDS011;7069;52.528;13.316;2023-04-07T08:48:54;4.93;;;3.90;;
13989;SDS011;7069;52.528;13.316;2023-04-07T08:51:28;5.10;;;3.80;;
13989;SDS011;7069;52.528;13.316;2023-04-07T08:53:57;7.63;;;4.67;;
13989;SDS011;7069;52.528;13.316;2023-04-07T08:56:27;8.03;;;4.90;;
13989;SDS011;7069;52.528;13.316;2023-04-07T08:58:55;4.23;;;3.70;;
13989;SDS011;7069;52.528;13.316;2023-04-07T09:01:21;6.67;;;4.00;;
13989;SDS011;7069;52.528;13.316;2023-04-07T09:03:49;6.93;;;4.33;;
13989;SDS011;7069;52.528;13.316;2023-04-07T09:06:15;5.77;;;4.23;;
13989;SDS011;7069;52.528;13.316;2023-04-07T09:08:42;6.17;;;4.30;;
13989;SDS011;7069;52.528;13.316;2023-04-07T09:11:09;5.77;;;4.10;;
13989;SDS011;7069;52.528;13.316;2023-04-07T09:13:37;5.23;;;3.80;;
13989;SDS011;7069;52.528;13.316;2023-04-07T09:16:03;4.00;;;3.67;;
13989;SDS011;7069;52.528;13.316;2023-04-07T09:18:30;5.00;;;3.83;;
13989;SDS011;7069;52.528;13.316;2023-04-07T09:20:57;6.07;;;4.53;;
13989;SDS011;7069;52.528;13.316;2023-04-07T09:23:28;4.67;;;3.60;;
13989;SDS011;7069;52.528;13.316;2023-04-07T09:25:55;7.77;;;4.17;;
13989;SDS011;7069;52.528;13.316;2023-04-07T09:28:38;6.37;;;4.10;;
13989;SDS011;7069;52.528;13.316;2023-04-07T09:31:06;6.37;;;4.17;;
13989;SDS011;7069;52.528;13.316;2023-04-07T09:33:39;4.40;;;3.97;;
13989;SDS011;7069;52.528;13.316;2023-04-07T09:36:08;8.13;;;4.47;;
13989;SDS011;7069;52.528;13.316;2023-04-07T09:38:35;7.60;;;3.30;;
13989;SDS011;7069;52.528;13.316;2023-04-07T09:41:05;4.90;;;3.70;;
13989;SDS011;7069;52.528;13.316;2023-04-07T09:43:33;6.83;;;3.90;;
13989;SDS011;7069;52.528;13.316;2023-04-07T09:46:07;4.43;;;3.10;;
13989;SDS011;7069;52.528;13.316;2023-04-07T09:48:34;5.47;;;3.33;;
13989;SDS011;7069;52.528;13.316;2023-04-07T09:51:03;3.87;;;3.20;;
13989;SDS011;7069;52.528;13.316;2023-04-07T09:53:35;4.40;;;3.40;;
13989;SDS011;7069;52.528;13.316;2023-04-07T09:56:06;4.03;;;3.10;;
13989;SDS011;7069;52.528;13.316;2023-04-07T09:58:33;3.90;;;2.87;;
13989;SDS011;7069;52.528;13.316;2023-04-07T10:01:00;4.43;;;3.43;;
13989;SDS011;7069;52.528;13.316;2023-04-07T10:03:28;3.30;;;3.00;;
13989;SDS011;7069;52.528;13.316;2023-04-07T10:05:55;3.40;;;3.03;;
13989;SDS011;7069;52.528;13.316;2023-04-07T10:08:21;4.70;;;3.37;;
13989;SDS011;7069;52.528;13.316;2023-04-07T10:10:48;3.20;;;2.90;;
13989;SDS011;7069;52.528;13.316;2023-04-07T10:13:15;3.53;;;3.03;;
13989;SDS011;7069;52.528;13.316;2023-04-07T10:15:41;4.30;;;3.10;;
13989;SDS011;7069;52.528;13.316;2023-04-07T10:18:08;3.13;;;2.80;;
13989;SDS011;7069;52.528;13.316;2023-04-07T10:20:36;3.70;;;3.07;;
13989;SDS011;7069;52.528;13.316;2023-04-07T10:23:06;4.07;;;3.00;;
13989;SDS011;7069;52.528;13.316;2023-04-07T10:25:35;3.30;;;2.33;;
13989;SDS011;7069;52.528;13.316;2023-04-07T10:28:05;3.23;;;2.27;;
13989;SDS011;7069;52.528;13.316;2023-04-07T10:30:33;3.80;;;3.00;;
13989;SDS011;7069;52.528;13.316;2023-04-07T10:33:00;2.87;;;2.00;;
13989;SDS011;7069;52.528;13.316;2023-04-07T10:35:27;2.63;;;2.40;;
13989;SDS011;7069;52.528;13.316;2023-04-07T10:38:12;2.70;;;2.30;;
13989;SDS011;7069;52.528;13.316;2023-04-07T10:40:39;2.33;;;2.13;;
13989;SDS011;7069;52.528;13.316;2023-04-07T10:43:06;2.90;;;2.33;;
13989;SDS011;7069;52.528;13.316;2023-04-07T10:45:50;3.60;;;2.00;;
13989;SDS011;7069;52.528;13.316;2023-04-07T10:48:18;3.77;;;1.90;;
13989;SDS011;7069;52.528;13.316;2023-04-07T10:50:44;3.03;;;2.73;;
13989;SDS011;7069;52.528;13.316;2023-04-07T10:53:13;3.30;;;2.93;;
13989;SDS011;7069;52.528;13.316;2023-04-07T10:55:40;5.07;;;3.33;;
13989;SDS011;7069;52.528;13.316;2023-04-07T10:58:12;4.20;;;2.97;;
13989;SDS011;7069;52.528;13.316;2023-04-07T11:00:39;7.07;;;2.93;;
13989;SDS011;7069;52.528;13.316;2023-04-07T11:03:09;2.63;;;2.20;;
13989;SDS011;7069;52.528;13.316;2023-04-07T11:05:37;4.13;;;2.70;;
13989;SDS011;7069;52.528;13.316;2023-04-07T11:08:03;4.27;;;2.70;;
13989;SDS011;7069;52.528;13.316;2023-04-07T11:10:33;5.67;;;2.63;;
13989;SDS011;7069;52.528;13.316;2023-04-07T11:13:04;3.97;;;2.77;;
13989;SDS011;7069;52.528;13.316;2023-04-07T11:15:31;3.17;;;2.87;;
13989;SDS011;7069;52.528;13.316;2023-04-07T11:18:05;3.93;;;3.40;;
13989;SDS011;7069;52.528;13.316;2023-04-07T11:20:42;3.67;;;3.37;;
13989;SDS011;7069;52.528;13.316;2023-04-07T11:23:09;3.53;;;3.03;;
13989;SDS011;7069;52.528;13.316;2023-04-07T11:25:38;4.63;;;3.63;;
13989;SDS011;7069;52.528;13.316;2023-04-07T11:28:05;3.80;;;3.00;;
13989;SDS011;7069;52.528;13.316;2023-04-07T11:30:32;5.67;;;3.57;;
13989;SDS011;7069;52.528;13.316;2023-04-07T11:33:00;3.80;;;3.40;;
13989;SDS011;7069;52.528;13.316;2023-04-07T11:35:26;5.10;;;4.30;;
13989;SDS011;7069;52.528;13.316;2023-04-07T11:37:57;5.63;;;4.70;;
13989;SDS011;7069;52.528;13.316;2023-04-07T11:40:33;5.10;;;4.00;;
13989;SDS011;7069;52.528;13.316;2023-04-07T11:43:02;6.80;;;4.13;;
13989;SDS011;7069;52.528;13.316;2023-04-07T11:45:40;6.30;;;4.67;;
13989;SDS011;7069;52.528;13.316;2023-04-07T11:50:49;4.43;;;3.70;;
13989;SDS011;7069;52.528;13.316;2023-04-07T11:53:23;4.10;;;3.50;;
13989;SDS011;7069;52.528;13.316;2023-04-07T11:55:57;4.60;;;4.17;;
13989;SDS011;7069;52.528;13.316;2023-04-07T11:58:26;5.07;;;4.53;;
13989;SDS011;7069;52.528;13.316;2023-04-07T12:00:53;5.07;;;4.67;;
13989;SDS011;7069;52.528;13.316;2023-04-07T12:03:21;6.80;;;5.53;;
13989;SDS011;7069;52.528;13.316;2023-04-07T12:05:48;5.53;;;5.03;;
13989;SDS011;7069;52.528;13.316;2023-04-07T12:08:15;5.40;;;4.90;;
13989;SDS011;7069;52.528;13.316;2023-04-07T12:10:43;6.53;;;5.03;;
13989;SDS011;7069;52.528;13.316;2023-04-07T12:13:11;4.90;;;4.47;;
13989;SDS011;7069;52.528;13.316;2023-04-07T12:15:39;5.13;;;4.63;;
13989;SDS011;7069;52.528;13.316;2023-04-07T12:18:06;5.27;;;4.80;;
13989;SDS011;7069;52.528;13.316;2023-04-07T12:20:33;5.17;;;4.07;;
13989;SDS011;7069;52.528;13.316;2023-04-07T12:23:00;5.77;;;4.67;;
13989;SDS011;7069;52.528;13.316;2023-04-07T12:25:26;5.57;;;5.03;;
13989;SDS011;7069;52.528;13.316;2023-04-07T12:27:53;5.63;;;4.53;;
13989;SDS011;7069;52.528;13.316;2023-04-07T12:30:20;5.20;;;4.70;;
13989;SDS011;7069;52.528;13.316;2023-04-07T12:32:48;7.27;;;5.07;;
13989;SDS011;7069;52.528;13.316;2023-04-07T12:35:14;4.90;;;4.40;;
13989;SDS011;7069;52.528;13.316;2023-04-07T12:37:41;5.80;;;3.87;;
13989;SDS011;7069;52.528;13.316;2023-04-07T12:40:08;4.90;;;4.47;;
13989;SDS011;7069;52.528;13.316;2023-04-07T12:42:35;4.63;;;3.93;;
13989;SDS011;7069;52.528;13.316;2023-04-07T12:45:02;6.53;;;3.77;;
13989;SDS011;7069;52.528;13.316;2023-04-07T12:47:28;4.47;;;3.40;;
13989;SDS011;7069;52.528;13.316;2023-04-07T12:49:57;3.97;;;3.53;;
13989;SDS011;7069;52.528;13.316;2023-04-07T12:52:24;5.30;;;4.07;;
13989;SDS011;7069;52.528;13.316;2023-04-07T12:54:50;5.23;;;4.60;;
13989;SDS011;7069;52.528;13.316;2023-04-07T12:57:17;4.80;;;4.00;;
13989;SDS011;7069;52.528;13.316;2023-04-07T12:59:44;6.20;;;4.10;;
13989;SDS011;7069;52.528;13.316;2023-04-07T13:02:10;5.03;;;4.10;;
13989;SDS011;7069;52.528;13.316;2023-04-07T13:04:37;5.43;;;4.37;;
13989;SDS011;7069;52.528;13.316;2023-04-07T13:07:06;4.07;;;3.60;;
13989;SDS011;7069;52.528;13.316;2023-04-07T13:09:33;4.57;;;3.57;;
13989;SDS011;7069;52.528;13.316;2023-04-07T13:12:00;3.63;;;3.33;;
13989;SDS011;7069;52.528;13.316;2023-04-07T13:14:27;3.83;;;2.90;;
13989;SDS011;7069;52.528;13.316;2023-04-07T13:16:54;2.93;;;2.67;;
13989;SDS011;7069;52.528;13.316;2023-04-07T13:19:20;3.17;;;2.80;;
13989;SDS011;7069;52.528;13.316;2023-04-07T13:21:47;3.37;;;2.97;;
13989;SDS011;7069;52.528;13.316;2023-04-07T13:24:15;3.10;;;2.80;;
13989;SDS011;7069;52.528;13.316;2023-04-07T13:26:42;3.87;;;3.57;;
13989;SDS011;7069;52.528;13.316;2023-04-07T13:29:08;4.27;;;3.37;;
13989;SDS011;7069;52.528;13.316;2023-04-07T13:31:35;3.07;;;2.63;;
13989;SDS011;7069;52.528;13.316;2023-04-07T13:34:01;3.30;;;3.00;;
13989;SDS011;7069;52.528;13.316;2023-04-07T13:36:29;3.80;;;3.20;;
13989;SDS011;7069;52.528;13.316;2023-04-07T13:38:56;4.10;;;3.57;;
13989;SDS011;7069;52.528;13.316;2023-04-07T13:41:25;3.63;;;3.07;;
13989;SDS011;7069;52.528;13.316;2023-04-07T13:43:52;4.47;;;3.60;;
13989;SDS011;7069;52.528;13.316;2023-04-07T13:46:19;3.33;;;2.70;;
13989;SDS011;7069;52.528;13.316;2023-04-07T13:48:45;3.50;;;3.00;;
13989;SDS011;7069;52.528;13.316;2023-04-07T13:51:12;2.87;;;2.57;;
13989;SDS011;7069;52.528;13.316;2023-04-07T13:53:39;4.83;;;3.17;;
13989;SDS011;7069;52.528;13.316;2023-04-07T13:56:05;2.97;;;2.67;;
13989;SDS011;7069;52.528;13.316;2023-04-07T13:58:34;3.30;;;3.00;;
13989;SDS011;7069;52.528;13.316;2023-04-07T14:01:01;3.17;;;2.90;;
13989;SDS011;7069;52.528;13.316;2023-04-07T14:03:28;4.00;;;3.60;;
13989;SDS011;7069;52.528;13.316;2023-04-07T14:05:55;3.73;;;3.40;;
13989;SDS011;7069;52.528;13.316;2023-04-07T14:08:25;3.63;;;3.30;;
13989;SDS011;7069;52.528;13.316;2023-04-07T14:10:51;3.77;;;3.47;;
13989;SDS011;7069;52.528;13.316;2023-04-07T14:13:18;3.47;;;2.83;;
13989;SDS011;7069;52.528;13.316;2023-04-07T14:15:46;3.57;;;3.17;;
13989;SDS011;7069;52.528;13.316;2023-04-07T14:18:13;4.73;;;3.83;;
13989;SDS011;7069;52.528;13.316;2023-04-07T14:20:41;4.17;;;3.17;;
13989;SDS011;7069;52.528;13.316;2023-04-07T14:23:07;3.70;;;3.40;;
13989;SDS011;7069;52.528;13.316;2023-04-07T14:25:34;3.73;;;3.43;;
13989;SDS011;7069;52.528;13.316;2023-04-07T14:28:00;4.20;;;3.23;;
13989;SDS011;7069;52.528;13.316;2023-04-07T14:30:27;3.50;;;3.07;;
13989;SDS011;7069;52.528;13.316;2023-04-07T14:32:56;5.70;;;3.57;;
13989;SDS011;7069;52.528;13.316;2023-04-07T14:35:22;5.67;;;4.10;;
13989;SDS011;7069;52.528;13.316;2023-04-07T14:37:49;4.07;;;3.27;;
13989;SDS011;7069;52.528;13.316;2023-04-07T14:40:16;3.73;;;3.20;;
13989;SDS011;7069;52.528;13.316;2023-04-07T14:42:42;4.13;;;3.63;;
13989;SDS011;7069;52.528;13.316;2023-04-07T14:45:09;3.97;;;3.47;;
13989;SDS011;7069;52.528;13.316;2023-04-07T14:47:36;4.03;;;3.73;;